KCBE

Greater Cumberland Regional Airport

Cumberland, West Virginia, USA
METAR KCBE 240736Z AUTO 00000KT 1 3/4SM VV007 13/13 A3022 RMK AO1
Observed Flight Rules
May-24 @ 07:36 UTC (33 minutes ago) Instrument Flight Rules
Visibility Clouds
1 3/4 miles
  • Vertical visibility at 700' AGL
Temperatures Readings
Current 13°C / 55°F
Dewpoint 13°C / 55°F
Humidity 100%
Altimeter 30.22" Hg
Pressure 1023 hPa
Elevation 236
METAR KCBE 240736Z AUTO 00000KT 1 3/4SM VV007 13/13 A3022 RMK AO1
Observed Flight Rules
May-24 @ 07:36 UTC
(33 minutes ago)
LIFR
Clouds
  • Vertical visibility at 700' AGL
Temperature Dewpoint
13°C / 55°F 13°C / 55°F
Humidity Altimeter Pressure
100% 30.22" Hg 1023 hPa